Maquinchao, Argentina
Current Conditions -  °F | °C
As of 3:00 PM on Saturday 25 Oct 2014 (Local Time) from SAZS Reporting Station
Clear Clear  
Wind Chill: 72°   Ceiling: Unl
Heat Index: 72°   Visibility: 6mi
Dew Point: 25°   Wind: 30mph
Humidity: 17%   Direction: 290°WNW
Pressure: 29.88"   Gusts: NA
Location:  41.25°S, 68.72°W
Report Text: SAZS 251800Z 29026KT CAVOK 22/M04 Q1012
Loading
Personal Weather Stations






























Interactive Weather Map
Tropical Storm Tracking
New forecast layout! Learn more

10-Day Weather Forecast

Advertisements
Track Severe Weather on mobile